Belgium, New York
Current Conditions -  °F | °C
As of 10:54 AM on Sunday 23 Nov 2014 (Local Time) from KFZY Reporting Station
Overcast Overcast  
Wind Chill:   Ceiling: 3400
Heat Index:   Visibility: 10mi
Dew Point:   Wind: 7mph
Humidity: 68%   Direction: 180°S
Pressure: 30.06"   Gusts: NA
Location:  43.1825°N, 76.3664°W
Report Text: KFZY 231554Z AUTO 18006KT 10SM BKN034 OVC060 09/03 A3006 RMK AO2 SLP181 T00890033
Loading
Personal Weather Stations






























Interactive Weather Map New forecast layout! Learn more

10-Day Weather Forecast

Advertisements
Track Severe Weather on mobile